sensor_id;sensor_type;location;lat;lon;timestamp;pressure;altitude;pressure_sealevel;temperature;humidity
9421;BME280;4749;51.398;5.466;2022-12-08T00:01:31;100966.50;;;5.18;100.00
9421;BME280;4749;51.398;5.466;2022-12-08T00:04:01;100966.47;;;5.17;100.00
9421;BME280;4749;51.398;5.466;2022-12-08T00:06:43;100964.69;;;5.16;100.00
9421;BME280;4749;51.398;5.466;2022-12-08T00:09:36;100960.38;;;5.16;100.00
9421;BME280;4749;51.398;5.466;2022-12-08T00:17:09;100941.34;;;5.20;100.00
9421;BME280;4749;51.398;5.466;2022-12-08T00:19:37;100939.59;;;5.19;100.00
9421;BME280;4749;51.398;5.466;2022-12-08T00:22:07;100938.69;;;5.19;100.00
9421;BME280;4749;51.398;5.466;2022-12-08T00:24:37;100928.28;;;5.19;100.00
9421;BME280;4749;51.398;5.466;2022-12-08T00:27:08;100925.69;;;5.20;100.00
9421;BME280;4749;51.398;5.466;2022-12-08T00:29:36;100927.53;;;5.23;100.00
9421;BME280;4749;51.398;5.466;2022-12-08T00:32:04;100929.28;;;5.24;100.00
9421;BME280;4749;51.398;5.466;2022-12-08T00:34:32;100928.44;;;5.25;100.00
9421;BME280;4749;51.398;5.466;2022-12-08T00:36:59;100921.47;;;5.24;100.00
9421;BME280;4749;51.398;5.466;2022-12-08T00:39:27;100922.41;;;5.27;100.00
9421;BME280;4749;51.398;5.466;2022-12-08T00:41:54;100923.28;;;5.28;100.00
9421;BME280;4749;51.398;5.466;2022-12-08T00:44:42;100928.50;;;5.28;100.00
9421;BME280;4749;51.398;5.466;2022-12-08T00:47:11;100927.66;;;5.29;100.00
9421;BME280;4749;51.398;5.466;2022-12-08T00:49:38;100915.50;;;5.29;100.00
9421;BME280;4749;51.398;5.466;2022-12-08T00:52:06;100918.19;;;5.31;100.00
9421;BME280;4749;51.398;5.466;2022-12-08T00:54:34;100912.97;;;5.31;100.00
9421;BME280;4749;51.398;5.466;2022-12-08T00:57:02;100906.03;;;5.31;100.00
9421;BME280;4749;51.398;5.466;2022-12-08T00:59:29;100911.25;;;5.31;100.00
9421;BME280;4749;51.398;5.466;2022-12-08T01:01:56;100908.63;;;5.31;100.00
9421;BME280;4749;51.398;5.466;2022-12-08T01:04:23;100906.91;;;5.32;100.00
9421;BME280;4749;51.398;5.466;2022-12-08T01:06:51;100909.50;;;5.32;100.00
9421;BME280;4749;51.398;5.466;2022-12-08T01:09:18;100902.56;;;5.32;100.00
9421;BME280;4749;51.398;5.466;2022-12-08T01:11:46;100906.91;;;5.32;100.00
9421;BME280;4749;51.398;5.466;2022-12-08T01:14:13;100901.69;;;5.32;100.00
9421;BME280;4749;51.398;5.466;2022-12-08T01:16:41;100898.22;;;5.31;100.00
9421;BME280;4749;51.398;5.466;2022-12-08T01:19:11;100892.09;;;5.31;100.00
9421;BME280;4749;51.398;5.466;2022-12-08T01:21:40;100878.09;;;5.27;100.00
9421;BME280;4749;51.398;5.466;2022-12-08T01:24:15;100891.09;;;5.26;100.00
9421;BME280;4749;51.398;5.466;2022-12-08T01:26:43;100886.69;;;5.23;100.00
9421;BME280;4749;51.398;5.466;2022-12-08T01:29:11;100885.72;;;5.20;100.00
9421;BME280;4749;51.398;5.466;2022-12-08T01:31:38;100879.56;;;5.16;100.00
9421;BME280;4749;51.398;5.466;2022-12-08T01:34:06;100884.75;;;5.15;100.00
9421;BME280;4749;51.398;5.466;2022-12-08T01:36:35;100882.88;;;5.11;100.00
9421;BME280;4749;51.398;5.466;2022-12-08T01:39:15;100888.94;;;5.09;100.00
9421;BME280;4749;51.398;5.466;2022-12-08T01:41:45;100887.19;;;5.08;100.00
9421;BME280;4749;51.398;5.466;2022-12-08T01:46:45;100882.91;;;5.12;100.00
9421;BME280;4749;51.398;5.466;2022-12-08T01:49:25;100875.19;;;5.15;100.00
9421;BME280;4749;51.398;5.466;2022-12-08T01:52:08;100876.16;;;5.19;100.00
9421;BME280;4749;51.398;5.466;2022-12-08T01:54:47;100880.50;;;5.20;100.00
9421;BME280;4749;51.398;5.466;2022-12-08T01:57:29;100871.91;;;5.22;100.00
9421;BME280;4749;51.398;5.466;2022-12-08T02:00:16;100876.31;;;5.25;100.00
9421;BME280;4749;51.398;5.466;2022-12-08T02:03:08;100879.81;;;5.27;100.00
9421;BME280;4749;51.398;5.466;2022-12-08T02:05:38;100874.63;;;5.27;100.00
9421;BME280;4749;51.398;5.466;2022-12-08T02:08:10;100874.72;;;5.30;100.00
9421;BME280;4749;51.398;5.466;2022-12-08T02:10:41;100868.66;;;5.31;100.00
9421;BME280;4749;51.398;5.466;2022-12-08T02:13:12;100863.44;;;5.31;100.00
9421;BME280;4749;51.398;5.466;2022-12-08T02:24:12;100855.56;;;5.29;100.00
9421;BME280;4749;51.398;5.466;2022-12-08T02:38:48;100836.38;;;5.27;100.00
9421;BME280;4749;51.398;5.466;2022-12-08T02:41:46;100841.56;;;5.26;100.00
9421;BME280;4749;51.398;5.466;2022-12-08T02:44:44;100826.75;;;5.23;100.00
9421;BME280;4749;51.398;5.466;2022-12-08T02:47:17;100825.03;;;5.24;100.00
9421;BME280;4749;51.398;5.466;2022-12-08T02:49:46;100827.66;;;5.25;100.00
9421;BME280;4749;51.398;5.466;2022-12-08T02:54:50;100818.03;;;5.21;100.00
9421;BME280;4749;51.398;5.466;2022-12-08T03:00:24;100813.53;;;5.16;100.00
9421;BME280;4749;51.398;5.466;2022-12-08T03:06:33;100805.72;;;5.16;100.00
9421;BME280;4749;51.398;5.466;2022-12-08T03:12:30;100797.00;;;5.15;100.00
9421;BME280;4749;51.398;5.466;2022-12-08T03:14:39;100797.00;;;5.15;100.00
9421;BME280;4749;51.398;5.466;2022-12-08T03:17:12;100796.16;;;5.16;100.00
9421;BME280;4749;51.398;5.466;2022-12-08T03:19:43;100797.06;;;5.18;100.00
9421;BME280;4749;51.398;5.466;2022-12-08T03:22:12;100797.16;;;5.21;100.00
9421;BME280;4749;51.398;5.466;2022-12-08T03:24:44;100783.28;;;5.22;100.00
9421;BME280;4749;51.398;5.466;2022-12-08T03:27:22;100778.09;;;5.24;100.00
9421;BME280;4749;51.398;5.466;2022-12-08T03:29:53;100776.38;;;5.24;100.00
9421;BME280;4749;51.398;5.466;2022-12-08T03:32:51;100776.44;;;5.27;100.00
9421;BME280;4749;51.398;5.466;2022-12-08T03:35:27;100779.06;;;5.29;100.00
9421;BME280;4749;51.398;5.466;2022-12-08T03:38:23;100780.91;;;5.31;100.00
9421;BME280;4749;51.398;5.466;2022-12-08T03:40:50;100778.31;;;5.33;100.00
9421;BME280;4749;51.398;5.466;2022-12-08T03:43:37;100773.13;;;5.34;100.00
9421;BME280;4749;51.398;5.466;2022-12-08T03:46:05;100767.97;;;5.37;100.00
9421;BME280;4749;51.398;5.466;2022-12-08T03:48:32;100760.16;;;5.37;100.00
9421;BME280;4749;51.398;5.466;2022-12-08T03:50:59;100764.50;;;5.37;100.00
9421;BME280;4749;51.398;5.466;2022-12-08T03:53:28;100762.72;;;5.36;100.00
9421;BME280;4749;51.398;5.466;2022-12-08T03:55:55;100762.72;;;5.36;100.00
9421;BME280;4749;51.398;5.466;2022-12-08T03:58:22;100756.66;;;5.37;100.00
9421;BME280;4749;51.398;5.466;2022-12-08T04:00:49;100761.88;;;5.37;100.00
9421;BME280;4749;51.398;5.466;2022-12-08T04:03:16;100762.81;;;5.39;100.00
9421;BME280;4749;51.398;5.466;2022-12-08T04:05:43;100761.13;;;5.41;100.00
9421;BME280;4749;51.398;5.466;2022-12-08T04:08:11;100757.66;;;5.42;100.00
9421;BME280;4749;51.398;5.466;2022-12-08T04:10:39;100761.19;;;5.44;100.00
9421;BME280;4749;51.398;5.466;2022-12-08T04:13:06;100752.47;;;5.44;100.00
9421;BME280;4749;51.398;5.466;2022-12-08T04:15:33;100747.25;;;5.44;100.00
9421;BME280;4749;51.398;5.466;2022-12-08T04:18:03;100749.00;;;5.43;100.00
9421;BME280;4749;51.398;5.466;2022-12-08T04:20:31;100740.31;;;5.44;100.00
9421;BME280;4749;51.398;5.466;2022-12-08T04:22:58;100741.16;;;5.43;100.00
9421;BME280;4749;51.398;5.466;2022-12-08T04:25:25;100757.72;;;5.45;100.00
9421;BME280;4749;51.398;5.466;2022-12-08T04:27:52;100749.03;;;5.45;100.00
9421;BME280;4749;51.398;5.466;2022-12-08T04:30:19;100748.13;;;5.44;100.00
9421;BME280;4749;51.398;5.466;2022-12-08T04:32:47;100739.44;;;5.44;100.00
9421;BME280;4749;51.398;5.466;2022-12-08T04:35:14;100743.81;;;5.45;100.00
9421;BME280;4749;51.398;5.466;2022-12-08T04:37:42;100748.13;;;5.44;100.00
9421;BME280;4749;51.398;5.466;2022-12-08T04:40:11;100736.81;;;5.42;100.00
9421;BME280;4749;51.398;5.466;2022-12-08T04:42:39;100729.84;;;5.41;100.00
9421;BME280;4749;51.398;5.466;2022-12-08T04:45:07;100722.84;;;5.39;100.00
9421;BME280;4749;51.398;5.466;2022-12-08T04:47:34;100731.53;;;5.39;100.00
9421;BME280;4749;51.398;5.466;2022-12-08T04:50:02;100721.00;;;5.36;100.00
9421;BME280;4749;51.398;5.466;2022-12-08T04:52:30;100719.31;;;5.38;100.00
9421;BME280;4749;51.398;5.466;2022-12-08T04:54:57;100714.06;;;5.36;100.00
9421;BME280;4749;51.398;5.466;2022-12-08T04:57:24;100710.63;;;5.37;100.00
9421;BME280;4749;51.398;5.466;2022-12-08T04:59:52;100714.06;;;5.35;100.00
9421;BME280;4749;51.398;5.466;2022-12-08T05:02:19;100715.78;;;5.34;100.00
9421;BME280;4749;51.398;5.466;2022-12-08T05:04:46;100722.75;;;5.35;100.00
9421;BME280;4749;51.398;5.466;2022-12-08T05:07:13;100718.41;;;5.36;100.00
9421;BME280;4749;51.398;5.466;2022-12-08T05:09:40;100728.81;;;5.34;100.00
9421;BME280;4749;51.398;5.466;2022-12-08T05:12:08;100721.84;;;5.33;100.00
9421;BME280;4749;51.398;5.466;2022-12-08T05:14:35;100720.97;;;5.33;100.00
9421;BME280;4749;51.398;5.466;2022-12-08T05:17:02;100720.13;;;5.34;100.00
9421;BME280;4749;51.398;5.466;2022-12-08T05:19:35;100718.38;;;5.34;100.00
9421;BME280;4749;51.398;5.466;2022-12-08T05:22:02;100721.88;;;5.35;100.00
9421;BME280;4749;51.398;5.466;2022-12-08T05:24:29;100714.06;;;5.35;100.00
9421;BME280;4749;51.398;5.466;2022-12-08T05:26:57;100723.59;;;5.34;100.00
9421;BME280;4749;51.398;5.466;2022-12-08T05:29:25;100717.50;;;5.34;100.00
9421;BME280;4749;51.398;5.466;2022-12-08T05:31:52;100714.00;;;5.32;100.00
9421;BME280;4749;51.398;5.466;2022-12-08T05:34:20;100714.00;;;5.32;100.00
9421;BME280;4749;51.398;5.466;2022-12-08T05:36:47;100712.25;;;5.32;100.00
9421;BME280;4749;51.398;5.466;2022-12-08T05:39:14;100708.75;;;5.30;100.00
9421;BME280;4749;51.398;5.466;2022-12-08T05:41:42;100708.75;;;5.30;100.00
9421;BME280;4749;51.398;5.466;2022-12-08T05:44:09;100709.53;;;5.28;100.00
9421;BME280;4749;51.398;5.466;2022-12-08T05:46:36;100698.22;;;5.26;100.00
9421;BME280;4749;51.398;5.466;2022-12-08T05:49:03;100702.53;;;5.24;100.00
9421;BME280;4749;51.398;5.466;2022-12-08T05:51:30;100699.00;;;5.22;100.00
9421;BME280;4749;51.398;5.466;2022-12-08T05:53:58;100699.00;;;5.22;100.00
9421;BME280;4749;51.398;5.466;2022-12-08T05:56:27;100693.72;;;5.20;100.00
9421;BME280;4749;51.398;5.466;2022-12-08T05:58:54;100691.13;;;5.20;100.00
9421;BME280;4749;51.398;5.466;2022-12-08T06:01:28;100695.47;;;5.20;100.00
9421;BME280;4749;51.398;5.466;2022-12-08T06:03:59;100701.53;;;5.19;100.00
9421;BME280;4749;51.398;5.466;2022-12-08T06:06:27;100693.69;;;5.17;100.00
9421;BME280;4749;51.398;5.466;2022-12-08T06:08:54;100699.75;;;5.18;100.00
9421;BME280;4749;51.398;5.466;2022-12-08T06:11:28;100699.75;;;5.16;100.00
9421;BME280;4749;51.398;5.466;2022-12-08T06:13:55;100688.44;;;5.16;100.00
9421;BME280;4749;51.398;5.466;2022-12-08T06:16:25;100683.19;;;5.14;100.00
9421;BME280;4749;51.398;5.466;2022-12-08T06:18:53;100684.88;;;5.12;100.00
9421;BME280;4749;51.398;5.466;2022-12-08T06:21:20;100680.50;;;5.11;100.00
9421;BME280;4749;51.398;5.466;2022-12-08T06:23:50;100683.94;;;5.08;100.00
9421;BME280;4749;51.398;5.466;2022-12-08T06:26:19;100686.47;;;5.05;100.00
9421;BME280;4749;51.398;5.466;2022-12-08T06:28:47;100689.09;;;5.05;100.00
9421;BME280;4749;51.398;5.466;2022-12-08T06:31:22;100675.97;;;5.02;100.00
9421;BME280;4749;51.398;5.466;2022-12-08T06:33:50;100681.09;;;4.98;100.00
9421;BME280;4749;51.398;5.466;2022-12-08T06:36:51;100676.75;;;4.98;100.00
9421;BME280;4749;51.398;5.466;2022-12-08T06:39:19;100666.31;;;4.97;100.00
9421;BME280;4749;51.398;5.466;2022-12-08T06:41:46;100664.50;;;4.94;100.00
9421;BME280;4749;51.398;5.466;2022-12-08T06:44:32;100661.81;;;4.90;100.00
9421;BME280;4749;51.398;5.466;2022-12-08T06:47:00;100663.53;;;4.89;100.00
9421;BME280;4749;51.398;5.466;2022-12-08T06:49:27;100670.47;;;4.89;100.00
9421;BME280;4749;51.398;5.466;2022-12-08T06:51:54;100666.09;;;4.88;100.00
9421;BME280;4749;51.398;5.466;2022-12-08T06:54:21;100672.22;;;4.90;100.00
9421;BME280;4749;51.398;5.466;2022-12-08T06:56:49;100673.97;;;4.91;100.00
9421;BME280;4749;51.398;5.466;2022-12-08T06:59:16;100667.91;;;4.92;100.00
9421;BME280;4749;51.398;5.466;2022-12-08T07:01:46;100668.78;;;4.92;100.00
9421;BME280;4749;51.398;5.466;2022-12-08T07:04:13;100667.91;;;4.92;100.00
9421;BME280;4749;51.398;5.466;2022-12-08T07:06:41;100674.91;;;4.94;100.00
9421;BME280;4749;51.398;5.466;2022-12-08T07:09:08;100674.00;;;4.92;100.00
9421;BME280;4749;51.398;5.466;2022-12-08T07:11:37;100677.50;;;4.93;100.00
9421;BME280;4749;51.398;5.466;2022-12-08T07:14:05;100679.28;;;4.95;100.00
9421;BME280;4749;51.398;5.466;2022-12-08T07:16:32;100680.13;;;4.94;100.00
9421;BME280;4749;51.398;5.466;2022-12-08T07:18:59;100681.84;;;4.94;100.00
9421;BME280;4749;51.398;5.466;2022-12-08T07:21:27;100676.66;;;4.95;100.00
9421;BME280;4749;51.398;5.466;2022-12-08T07:23:54;100687.16;;;4.97;100.00
9421;BME280;4749;51.398;5.466;2022-12-08T07:26:24;100682.81;;;4.97;100.00
9421;BME280;4749;51.398;5.466;2022-12-08T07:28:52;100689.78;;;4.98;100.00
9421;BME280;4749;51.398;5.466;2022-12-08T07:31:23;100692.41;;;4.98;100.00
9421;BME280;4749;51.398;5.466;2022-12-08T07:33:51;100686.31;;;4.98;100.00
9421;BME280;4749;51.398;5.466;2022-12-08T07:36:18;100688.06;;;4.99;100.00
9421;BME280;4749;51.398;5.466;2022-12-08T07:38:46;100681.13;;;4.99;100.00
9421;BME280;4749;51.398;5.466;2022-12-08T07:41:20;100679.44;;;5.01;100.00
9421;BME280;4749;51.398;5.466;2022-12-08T07:43:50;100682.94;;;5.03;100.00
9421;BME280;4749;51.398;5.466;2022-12-08T07:46:20;100684.66;;;5.03;100.00
9421;BME280;4749;51.398;5.466;2022-12-08T07:48:47;100677.78;;;5.05;100.00
9421;BME280;4749;51.398;5.466;2022-12-08T07:51:15;100683.00;;;5.05;100.00
9421;BME280;4749;51.398;5.466;2022-12-08T07:53:45;100682.16;;;5.06;100.00
9421;BME280;4749;51.398;5.466;2022-12-08T07:56:20;100680.44;;;5.08;100.00
9421;BME280;4749;51.398;5.466;2022-12-08T07:58:47;100681.44;;;5.13;100.00
9421;BME280;4749;51.398;5.466;2022-12-08T08:01:29;100685.84;;;5.16;100.00
9421;BME280;4749;51.398;5.466;2022-12-08T08:03:59;100685.00;;;5.18;100.00
9421;BME280;4749;51.398;5.466;2022-12-08T08:06:32;100686.75;;;5.19;100.00
9421;BME280;4749;51.398;5.466;2022-12-08T08:09:00;100684.16;;;5.19;100.00
9421;BME280;4749;51.398;5.466;2022-12-08T08:11:27;100678.97;;;5.21;100.00
9421;BME280;4749;51.398;5.466;2022-12-08T08:13:56;100690.31;;;5.21;100.00
9421;BME280;4749;51.398;5.466;2022-12-08T08:16:23;100689.47;;;5.22;100.00
9421;BME280;4749;51.398;5.466;2022-12-08T08:18:51;100690.38;;;5.24;100.00
9421;BME280;4749;51.398;5.466;2022-12-08T08:21:19;100698.22;;;5.26;100.00
9421;BME280;4749;51.398;5.466;2022-12-08T08:24:07;100699.03;;;5.23;100.00
9421;BME280;4749;51.398;5.466;2022-12-08T08:26:35;100696.44;;;5.25;100.00
9421;BME280;4749;51.398;5.466;2022-12-08T08:29:03;100689.50;;;5.25;100.00
9421;BME280;4749;51.398;5.466;2022-12-08T08:31:30;100694.78;;;5.28;100.00
9421;BME280;4749;51.398;5.466;2022-12-08T08:33:57;100688.72;;;5.29;100.00
9421;BME280;4749;51.398;5.466;2022-12-08T08:36:31;100696.59;;;5.31;100.00
9421;BME280;4749;51.398;5.466;2022-12-08T08:38:58;100687.91;;;5.30;100.00
9421;BME280;4749;51.398;5.466;2022-12-08T08:41:25;100694.03;;;5.32;100.00
9421;BME280;4749;51.398;5.466;2022-12-08T08:43:54;100689.66;;;5.31;100.00
9421;BME280;4749;51.398;5.466;2022-12-08T08:46:21;100682.69;;;5.30;100.00
9421;BME280;4749;51.398;5.466;2022-12-08T08:48:48;100682.63;;;5.29;100.00
9421;BME280;4749;51.398;5.466;2022-12-08T08:51:15;100693.06;;;5.29;100.00
9421;BME280;4749;51.398;5.466;2022-12-08T08:53:42;100686.19;;;5.32;100.00
9421;BME280;4749;51.398;5.466;2022-12-08T08:56:15;100691.38;;;5.31;100.00
9421;BME280;4749;51.398;5.466;2022-12-08T08:58:46;100688.81;;;5.32;100.00
9421;BME280;4749;51.398;5.466;2022-12-08T09:01:20;100685.38;;;5.35;100.00
9421;BME280;4749;51.398;5.466;2022-12-08T09:03:48;100693.19;;;5.35;100.00
9421;BME280;4749;51.398;5.466;2022-12-08T09:06:16;100686.25;;;5.35;100.00
9421;BME280;4749;51.398;5.466;2022-12-08T09:08:46;100683.72;;;5.39;100.00
9421;BME280;4749;51.398;5.466;2022-12-08T09:11:14;100677.69;;;5.41;100.00
9421;BME280;4749;51.398;5.466;2022-12-08T09:13:41;100680.34;;;5.44;100.00
9421;BME280;4749;51.398;5.466;2022-12-08T09:16:10;100675.25;;;5.49;100.00
9421;BME280;4749;51.398;5.466;2022-12-08T09:18:38;100683.13;;;5.53;100.00
9421;BME280;4749;51.398;5.466;2022-12-08T09:21:09;100690.19;;;5.57;100.00
9421;BME280;4749;51.398;5.466;2022-12-08T09:23:39;100685.16;;;5.67;100.00
9421;BME280;4749;51.398;5.466;2022-12-08T09:26:07;100679.22;;;5.74;100.00
9421;BME280;4749;51.398;5.466;2022-12-08T09:28:34;100690.56;;;5.76;100.00
9421;BME280;4749;51.398;5.466;2022-12-08T09:31:02;100682.69;;;5.73;100.00
9421;BME280;4749;51.398;5.466;2022-12-08T09:33:31;100689.56;;;5.69;100.00
9421;BME280;4749;51.398;5.466;2022-12-08T09:36:02;100695.56;;;5.65;100.00
9421;BME280;4749;51.398;5.466;2022-12-08T09:38:32;100685.94;;;5.62;100.00
9421;BME280;4749;51.398;5.466;2022-12-08T09:41:44;100678.97;;;5.61;100.00
9421;BME280;4749;51.398;5.466;2022-12-08T09:50:33;100681.09;;;5.81;100.00
9421;BME280;4749;51.398;5.466;2022-12-08T09:53:26;100682.06;;;5.87;100.00
9421;BME280;4749;51.398;5.466;2022-12-08T09:56:08;100674.25;;;5.87;100.00
9421;BME280;4749;51.398;5.466;2022-12-08T10:01:49;100675.06;;;5.83;100.00
9421;BME280;4749;51.398;5.466;2022-12-08T10:04:35;100683.84;;;5.88;100.00
9421;BME280;4749;51.398;5.466;2022-12-08T10:10:38;100673.56;;;5.96;100.00
9421;BME280;4749;51.398;5.466;2022-12-08T10:19:18;100661.38;;;5.95;100.00
9421;BME280;4749;51.398;5.466;2022-12-08T10:21:46;100659.63;;;5.94;100.00
9421;BME280;4749;51.398;5.466;2022-12-08T10:24:33;100663.09;;;5.93;100.00
9421;BME280;4749;51.398;5.466;2022-12-08T10:27:04;100659.53;;;5.89;100.00
9421;BME280;4749;51.398;5.466;2022-12-08T10:29:39;100656.84;;;5.86;100.00
9421;BME280;4749;51.398;5.466;2022-12-08T10:32:18;100655.97;;;5.86;100.00
9421;BME280;4749;51.398;5.466;2022-12-08T10:35:11;100654.25;;;5.88;100.00
9421;BME280;4749;51.398;5.466;2022-12-08T10:37:39;100657.78;;;5.90;100.00
9421;BME280;4749;51.398;5.466;2022-12-08T10:40:13;100647.44;;;5.93;100.00
9421;BME280;4749;51.398;5.466;2022-12-08T10:42:50;100648.22;;;5.89;100.00
9421;BME280;4749;51.398;5.466;2022-12-08T10:53:32;100634.38;;;5.91;100.00
9421;BME280;4749;51.398;5.466;2022-12-08T10:58:34;100636.22;;;5.97;100.00
9421;BME280;4749;51.398;5.466;2022-12-08T11:01:25;100642.41;;;6.04;100.00
9421;BME280;4749;51.398;5.466;2022-12-08T11:04:00;100646.03;;;6.12;100.00
9421;BME280;4749;51.398;5.466;2022-12-08T11:06:35;100640.94;;;6.19;100.00
9421;BME280;4749;51.398;5.466;2022-12-08T11:11:53;100625.50;;;6.32;100.00
9421;BME280;4749;51.398;5.466;2022-12-08T11:17:26;100626.69;;;6.52;100.00
9421;BME280;4749;51.398;5.466;2022-12-08T11:22:44;100622.50;;;6.63;100.00
9421;BME280;4749;51.398;5.466;2022-12-08T11:25:18;100616.47;;;6.67;100.00
9421;BME280;4749;51.398;5.466;2022-12-08T11:27:49;100611.34;;;6.73;100.00
9421;BME280;4749;51.398;5.466;2022-12-08T11:35:39;100598.69;;;7.02;100.00
9421;BME280;4749;51.398;5.466;2022-12-08T11:38:20;100597.91;;;7.11;100.00
9421;BME280;4749;51.398;5.466;2022-12-08T11:46:21;100594.34;;;7.06;100.00
9421;BME280;4749;51.398;5.466;2022-12-08T11:48:59;100591.66;;;6.98;100.00
9421;BME280;4749;51.398;5.466;2022-12-08T11:51:53;100588.88;;;6.86;100.00
9421;BME280;4749;51.398;5.466;2022-12-08T11:54:33;100591.31;;;6.74;100.00
9421;BME280;4749;51.398;5.466;2022-12-08T11:57:10;100589.38;;;6.61;100.00
9421;BME280;4749;51.398;5.466;2022-12-08T11:59:44;100590.09;;;6.51;100.00
9421;BME280;4749;51.398;5.466;2022-12-08T12:02:27;100586.47;;;6.41;100.00
9421;BME280;4749;51.398;5.466;2022-12-08T12:09:10;100578.41;;;6.27;100.00
9421;BME280;4749;51.398;5.466;2022-12-08T12:18:09;100571.31;;;6.17;100.00
9421;BME280;4749;51.398;5.466;2022-12-08T12:20:56;100566.91;;;6.14;100.00
9421;BME280;4749;51.398;5.466;2022-12-08T12:23:42;100567.75;;;6.13;100.00
9421;BME280;4749;51.398;5.466;2022-12-08T12:26:28;100569.47;;;6.13;100.00
9421;BME280;4749;51.398;5.466;2022-12-08T12:31:33;100567.81;;;6.16;100.00
9421;BME280;4749;51.398;5.466;2022-12-08T12:34:16;100566.94;;;6.16;100.00
9421;BME280;4749;51.398;5.466;2022-12-08T12:36:57;100566.94;;;6.16;100.00
9421;BME280;4749;51.398;5.466;2022-12-08T12:39:28;100563.47;;;6.17;100.00
9421;BME280;4749;51.398;5.466;2022-12-08T12:41:59;100564.34;;;6.16;100.00
9421;BME280;4749;51.398;5.466;2022-12-08T12:46:56;100565.88;;;6.05;100.00
9421;BME280;4749;51.398;5.466;2022-12-08T12:57:38;100563.72;;;5.81;100.00
9421;BME280;4749;51.398;5.466;2022-12-08T13:00:15;100561.88;;;5.77;100.00
9421;BME280;4749;51.398;5.466;2022-12-08T13:05:25;100554.88;;;5.73;100.00
9421;BME280;4749;51.398;5.466;2022-12-08T13:08:21;100548.78;;;5.72;100.00
9421;BME280;4749;51.398;5.466;2022-12-08T13:11:03;100551.38;;;5.72;100.00
9421;BME280;4749;51.398;5.466;2022-12-08T13:13:32;100551.38;;;5.72;100.00
9421;BME280;4749;51.398;5.466;2022-12-08T13:18:49;100549.56;;;5.68;100.00
9421;BME280;4749;51.398;5.466;2022-12-08T13:21:22;100556.53;;;5.69;100.00
9421;BME280;4749;51.398;5.466;2022-12-08T13:27:26;100555.78;;;5.75;100.00
9421;BME280;4749;51.398;5.466;2022-12-08T13:29:37;100547.09;;;5.77;100.00
9421;BME280;4749;51.398;5.466;2022-12-08T13:34:51;100548.22;;;5.90;100.00
9421;BME280;4749;51.398;5.466;2022-12-08T13:37:46;100551.00;;;5.98;100.00
9421;BME280;4749;51.398;5.466;2022-12-08T13:40:24;100551.94;;;6.04;100.00
9421;BME280;4749;51.398;5.466;2022-12-08T13:43:22;100548.66;;;6.16;100.00
9421;BME280;4749;51.398;5.466;2022-12-08T13:45:54;100541.84;;;6.26;100.00
9421;BME280;4749;51.398;5.466;2022-12-08T13:48:49;100540.22;;;6.32;100.00
9421;BME280;4749;51.398;5.466;2022-12-08T13:51:44;100532.44;;;6.38;100.00
9421;BME280;4749;51.398;5.466;2022-12-08T13:54:41;100529.06;;;6.44;100.00
9421;BME280;4749;51.398;5.466;2022-12-08T13:57:32;100525.59;;;6.46;100.00
9421;BME280;4749;51.398;5.466;2022-12-08T14:00:16;100523.84;;;6.45;100.00
9421;BME280;4749;51.398;5.466;2022-12-08T14:02:50;100522.97;;;6.43;100.00
9421;BME280;4749;51.398;5.466;2022-12-08T14:05:21;100525.53;;;6.40;100.00
9421;BME280;4749;51.398;5.466;2022-12-08T14:08:38;100511.53;;;6.34;100.00
9421;BME280;4749;51.398;5.466;2022-12-08T14:11:44;100512.28;;;6.28;100.00
9421;BME280;4749;51.398;5.466;2022-12-08T14:14:30;100515.78;;;6.29;100.00
9421;BME280;4749;51.398;5.466;2022-12-08T14:17:21;100518.34;;;6.26;100.00
9421;BME280;4749;51.398;5.466;2022-12-08T14:20:23;100525.31;;;6.25;100.00
9421;BME280;4749;51.398;5.466;2022-12-08T14:22:52;100522.63;;;6.22;100.00
9421;BME280;4749;51.398;5.466;2022-12-08T14:25:22;100520.00;;;6.20;100.00
9421;BME280;4749;51.398;5.466;2022-12-08T14:27:49;100525.22;;;6.20;100.00
9421;BME280;4749;51.398;5.466;2022-12-08T14:30:31;100535.66;;;6.19;100.00
9421;BME280;4749;51.398;5.466;2022-12-08T14:33:01;100524.34;;;6.20;100.00
9421;BME280;4749;51.398;5.466;2022-12-08T14:35:33;100539.09;;;6.16;100.00
9421;BME280;4749;51.398;5.466;2022-12-08T14:38:15;100535.50;;;6.08;100.00
9421;BME280;4749;51.398;5.466;2022-12-08T14:41:05;100537.16;;;6.05;100.00
9421;BME280;4749;51.398;5.466;2022-12-08T14:43:33;100531.88;;;5.99;100.00
9421;BME280;4749;51.398;5.466;2022-12-08T14:46:11;100544.84;;;5.96;100.00
9421;BME280;4749;51.398;5.466;2022-12-08T14:48:45;100538.72;;;5.92;100.00
9421;BME280;4749;51.398;5.466;2022-12-08T14:54:07;100533.28;;;5.81;100.00
9421;BME280;4749;51.398;5.466;2022-12-08T14:57:00;100527.09;;;5.76;100.00
9421;BME280;4749;51.398;5.466;2022-12-08T14:59:36;100521.75;;;5.70;100.00
9421;BME280;4749;51.398;5.466;2022-12-08T15:05:13;100519.00;;;5.61;100.00
9421;BME280;4749;51.398;5.466;2022-12-08T15:07:53;100518.84;;;5.53;100.00
9421;BME280;4749;51.398;5.466;2022-12-08T15:10:29;100529.13;;;5.44;100.00
9421;BME280;4749;51.398;5.466;2022-12-08T15:15:53;100531.53;;;5.32;100.00
9421;BME280;4749;51.398;5.466;2022-12-08T15:18:37;100534.00;;;5.26;100.00
9421;BME280;4749;51.398;5.466;2022-12-08T15:21:09;100532.13;;;5.19;100.00
9421;BME280;4749;51.398;5.466;2022-12-08T15:23:45;100528.47;;;5.11;100.00
9421;BME280;4749;51.398;5.466;2022-12-08T15:26:24;100541.44;;;5.06;100.00
9421;BME280;4749;51.398;5.466;2022-12-08T15:28:53;100537.00;;;5.02;100.00
9421;BME280;4749;51.398;5.466;2022-12-08T15:31:21;100544.75;;;4.97;100.00
9421;BME280;4749;51.398;5.466;2022-12-08T15:33:48;100536.78;;;4.91;100.00
9421;BME280;4749;51.398;5.466;2022-12-08T15:36:15;100541.94;;;4.88;100.00
9421;BME280;4749;51.398;5.466;2022-12-08T15:38:43;100547.06;;;4.85;100.00
9421;BME280;4749;51.398;5.466;2022-12-08T15:41:10;100540.97;;;4.83;100.00
9421;BME280;4749;51.398;5.466;2022-12-08T15:43:41;100547.91;;;4.83;100.00
9421;BME280;4749;51.398;5.466;2022-12-08T15:46:08;100556.59;;;4.83;100.00
9421;BME280;4749;51.398;5.466;2022-12-08T15:48:36;100552.19;;;4.80;100.00
9421;BME280;4749;51.398;5.466;2022-12-08T15:51:04;100551.25;;;4.78;100.00
9421;BME280;4749;51.398;5.466;2022-12-08T15:53:31;100548.59;;;4.75;100.00